createdAt,value
2023-03-29T00:02:04.148Z,68.08
2023-03-29T00:04:31.409Z,68.37
2023-03-29T00:06:58.092Z,68.83
2023-03-29T00:09:26.722Z,69.18
2023-03-29T00:11:53.499Z,70.38
2023-03-29T00:14:20.237Z,70.53
2023-03-29T00:16:47.159Z,70.78
2023-03-29T00:19:13.859Z,72.71
2023-03-29T00:21:40.909Z,73.77
2023-03-29T00:24:07.694Z,74.67
2023-03-29T00:26:34.338Z,74.83
2023-03-29T00:29:00.978Z,77.73
2023-03-29T00:31:28.591Z,81.41
2023-03-29T00:33:55.317Z,83.56
2023-03-29T00:36:22.211Z,86.82
2023-03-29T00:38:49.190Z,88.16
2023-03-29T00:41:16.117Z,90.93
2023-03-29T00:44:00.800Z,92.07
2023-03-29T00:46:29.866Z,93.54
2023-03-29T00:49:07.207Z,94.34
2023-03-29T00:51:37.401Z,95.69
2023-03-29T00:54:06.562Z,95.83
2023-03-29T00:56:37.100Z,97.66
2023-03-29T00:59:10.020Z,98.91
2023-03-29T01:01:47.041Z,98.30
2023-03-29T01:04:52.726Z,100.00
2023-03-29T01:07:42.835Z,100.00
2023-03-29T01:10:22.713Z,100.00
2023-03-29T01:12:56.391Z,100.00
2023-03-29T01:15:27.221Z,100.00
2023-03-29T01:17:55.807Z,100.00
2023-03-29T01:20:46.304Z,100.00
2023-03-29T01:23:22.966Z,100.00
2023-03-29T01:26:13.931Z,100.00
2023-03-29T01:28:46.965Z,100.00
2023-03-29T01:31:24.418Z,100.00
2023-03-29T01:34:01.460Z,100.00
2023-03-29T01:36:37.176Z,100.00
2023-03-29T01:39:07.082Z,100.00
2023-03-29T01:42:01.081Z,100.00
2023-03-29T01:44:40.423Z,100.00
2023-03-29T01:47:39.392Z,100.00
2023-03-29T01:50:46.188Z,100.00
2023-03-29T01:53:19.107Z,100.00
2023-03-29T01:55:56.623Z,100.00
2023-03-29T01:58:27.361Z,100.00
2023-03-29T02:00:55.395Z,100.00
2023-03-29T02:03:28.179Z,100.00
2023-03-29T02:05:57.324Z,100.00
2023-03-29T02:08:25.664Z,100.00
2023-03-29T02:10:52.800Z,100.00
2023-03-29T02:13:19.953Z,100.00
2023-03-29T02:15:47.691Z,100.00
2023-03-29T02:18:19.867Z,100.00
2023-03-29T02:20:49.646Z,100.00
2023-03-29T02:23:28.008Z,100.00
2023-03-29T02:25:56.986Z,100.00
2023-03-29T02:28:25.166Z,100.00
2023-03-29T02:31:03.462Z,100.00
2023-03-29T02:33:39.107Z,100.00
2023-03-29T02:36:23.928Z,100.00
2023-03-29T02:38:52.780Z,100.00
2023-03-29T02:41:20.624Z,100.00
2023-03-29T02:43:49.254Z,100.00
2023-03-29T02:46:18.685Z,100.00
2023-03-29T02:48:49.630Z,100.00
2023-03-29T02:51:20.926Z,100.00
2023-03-29T02:54:05.080Z,100.00
2023-03-29T02:56:45.210Z,100.00
2023-03-29T02:59:12.544Z,100.00
2023-03-29T03:01:43.935Z,100.00
2023-03-29T03:04:12.328Z,100.00
2023-03-29T03:06:39.274Z,100.00
2023-03-29T03:09:09.748Z,100.00
2023-03-29T03:11:36.489Z,100.00
2023-03-29T03:14:03.272Z,100.00
2023-03-29T03:16:30.049Z,100.00
2023-03-29T03:18:56.749Z,100.00
2023-03-29T03:21:23.502Z,100.00
2023-03-29T03:23:50.430Z,100.00
2023-03-29T03:26:18.075Z,100.00
2023-03-29T03:28:45.740Z,100.00
2023-03-29T03:31:15.790Z,100.00
2023-03-29T03:33:42.542Z,100.00
2023-03-29T03:36:10.843Z,100.00
2023-03-29T03:38:38.510Z,100.00
2023-03-29T03:41:07.267Z,100.00
2023-03-29T03:43:34.739Z,100.00
2023-03-29T03:46:02.292Z,100.00
2023-03-29T03:48:28.931Z,100.00
2023-03-29T03:50:58.252Z,100.00
2023-03-29T03:53:27.324Z,100.00
2023-03-29T03:55:56.070Z,100.00
2023-03-29T03:58:23.351Z,100.00
2023-03-29T04:00:51.327Z,100.00
2023-03-29T04:03:18.635Z,100.00
2023-03-29T04:05:46.795Z,100.00
2023-03-29T04:08:14.272Z,100.00
2023-03-29T04:10:41.463Z,100.00
2023-03-29T04:13:08.365Z,100.00
2023-03-29T04:15:41.338Z,100.00
2023-03-29T04:18:08.676Z,100.00
2023-03-29T04:20:35.340Z,100.00
2023-03-29T04:23:01.991Z,100.00
2023-03-29T04:25:28.930Z,100.00
2023-03-29T04:27:56.106Z,100.00
2023-03-29T04:30:22.834Z,100.00
2023-03-29T04:32:49.532Z,100.00
2023-03-29T04:35:16.625Z,100.00
2023-03-29T04:37:43.281Z,100.00
2023-03-29T04:40:14.930Z,100.00
2023-03-29T04:42:45.849Z,100.00
2023-03-29T04:45:19.867Z,100.00
2023-03-29T04:47:46.526Z,100.00
2023-03-29T04:50:13.906Z,100.00
2023-03-29T04:52:41.458Z,100.00
2023-03-29T04:55:09.272Z,100.00
2023-03-29T04:57:35.949Z,100.00
2023-03-29T05:00:14.336Z,100.00
2023-03-29T05:02:43.297Z,100.00
2023-03-29T05:05:11.633Z,100.00
2023-03-29T05:07:39.056Z,100.00
2023-03-29T05:10:06.765Z,100.00
2023-03-29T05:12:33.373Z,100.00
2023-03-29T05:15:00.042Z,100.00
2023-03-29T05:17:27.482Z,100.00
2023-03-29T05:19:54.807Z,100.00
2023-03-29T05:22:21.780Z,100.00
2023-03-29T05:24:48.617Z,100.00
2023-03-29T05:27:17.114Z,100.00
2023-03-29T05:29:44.831Z,100.00
2023-03-29T05:32:11.832Z,100.00
2023-03-29T05:34:39.166Z,100.00
2023-03-29T05:37:05.787Z,100.00
2023-03-29T05:39:35.154Z,99.33
2023-03-29T05:42:03.072Z,98.93
2023-03-29T05:44:29.644Z,96.24
2023-03-29T05:46:57.253Z,95.58
2023-03-29T05:49:23.995Z,95.34
2023-03-29T05:51:52.029Z,92.64
2023-03-29T05:54:18.658Z,89.67
2023-03-29T05:56:45.261Z,89.00
2023-03-29T05:59:11.813Z,85.31
2023-03-29T06:01:40.054Z,77.96
2023-03-29T06:04:06.761Z,77.71
2023-03-29T06:06:34.029Z,76.01
2023-03-29T06:09:01.349Z,77.28
2023-03-29T06:11:27.960Z,75.47
2023-03-29T06:13:54.536Z,76.35
2023-03-29T06:16:21.225Z,73.83
2023-03-29T06:18:47.956Z,72.18
2023-03-29T06:21:14.933Z,73.62
2023-03-29T06:23:41.856Z,68.14
2023-03-29T06:26:08.647Z,65.10
2023-03-29T06:28:35.642Z,62.99
2023-03-29T06:31:04.446Z,63.01
2023-03-29T06:33:32.424Z,60.61
2023-03-29T06:35:59.275Z,59.54
2023-03-29T06:38:29.004Z,58.22
2023-03-29T06:41:04.388Z,55.99
2023-03-29T06:43:33.303Z,53.63
2023-03-29T06:46:01.065Z,54.09
2023-03-29T06:48:27.706Z,58.01
2023-03-29T06:50:54.658Z,58.17
2023-03-29T06:53:22.110Z,58.37
2023-03-29T06:55:50.758Z,57.73
2023-03-29T06:58:17.612Z,56.17
2023-03-29T07:00:44.202Z,56.85
2023-03-29T07:03:13.520Z,55.57
2023-03-29T07:05:44.893Z,50.79
2023-03-29T07:08:13.938Z,51.69
2023-03-29T07:10:43.419Z,53.70
2023-03-29T07:13:15.626Z,51.92
2023-03-29T07:15:43.769Z,52.76
2023-03-29T07:18:11.343Z,50.47
2023-03-29T07:20:38.826Z,51.22
2023-03-29T07:23:06.918Z,52.33
2023-03-29T07:25:34.092Z,51.06
2023-03-29T07:28:00.825Z,51.34
2023-03-29T07:30:31.636Z,51.87
2023-03-29T07:33:00.484Z,51.20
2023-03-29T07:35:28.308Z,51.95
2023-03-29T07:37:55.860Z,53.31
2023-03-29T07:40:23.781Z,53.37
2023-03-29T07:42:56.612Z,50.61
2023-03-29T07:45:26.484Z,49.13
2023-03-29T07:47:57.891Z,48.70
2023-03-29T07:50:25.810Z,47.13
2023-03-29T07:52:52.743Z,45.72
2023-03-29T07:55:19.736Z,43.61
2023-03-29T07:57:46.348Z,40.58
2023-03-29T08:00:16.952Z,38.31
2023-03-29T08:02:49.825Z,39.05
2023-03-29T08:05:26.092Z,39.42
2023-03-29T08:07:56.297Z,40.54
2023-03-29T08:10:23.009Z,41.45
2023-03-29T08:12:50.877Z,41.04
2023-03-29T08:15:17.669Z,40.20
2023-03-29T08:17:44.714Z,38.83
2023-03-29T08:20:13.528Z,37.79
2023-03-29T08:22:40.483Z,36.55
2023-03-29T08:25:07.888Z,38.52
2023-03-29T08:27:35.297Z,39.99
2023-03-29T08:30:02.017Z,37.11
2023-03-29T08:32:28.693Z,36.35
2023-03-29T08:34:55.511Z,40.03
2023-03-29T08:37:24.551Z,37.92
2023-03-29T08:39:51.234Z,35.08
2023-03-29T08:42:32.935Z,36.60
2023-03-29T08:45:14.812Z,36.50
2023-03-29T08:48:19.058Z,34.55
2023-03-29T08:51:16.086Z,33.47
2023-03-29T08:53:48.780Z,30.92
2023-03-29T08:56:20.730Z,25.95
2023-03-29T08:58:50.448Z,29.08
2023-03-29T09:01:17.477Z,27.30
2023-03-29T09:03:53.917Z,25.90
2023-03-29T09:06:22.116Z,26.58
2023-03-29T09:08:52.225Z,25.75
2023-03-29T09:11:24.727Z,27.33
2023-03-29T09:14:06.949Z,24.88
2023-03-29T09:16:41.881Z,26.13
2023-03-29T09:19:37.729Z,23.77
2023-03-29T09:22:06.884Z,25.08
2023-03-29T09:24:52.741Z,22.69
2023-03-29T09:27:27.326Z,23.63
2023-03-29T09:30:28.616Z,24.91
2023-03-29T09:33:13.618Z,27.43
2023-03-29T09:35:55.319Z,26.04
2023-03-29T09:38:22.949Z,25.81
2023-03-29T09:40:59.278Z,25.63
2023-03-29T09:43:36.184Z,26.79
2023-03-29T09:46:06.996Z,25.50
2023-03-29T09:48:39.459Z,24.75
2023-03-29T09:51:08.845Z,24.85
2023-03-29T09:53:35.474Z,26.17
2023-03-29T09:56:02.745Z,27.90
2023-03-29T09:58:31.725Z,27.32
2023-03-29T10:01:00.696Z,27.29
2023-03-29T10:03:29.789Z,25.86
2023-03-29T10:05:59.538Z,25.25
2023-03-29T10:08:35.809Z,21.95
2023-03-29T10:11:12.458Z,26.65
2023-03-29T10:13:46.401Z,24.13
2023-03-29T10:16:21.293Z,24.63
2023-03-29T10:18:50.265Z,25.06
2023-03-29T10:21:22.382Z,25.37
2023-03-29T10:23:56.473Z,24.18
2023-03-29T10:26:32.742Z,25.92
2023-03-29T10:29:02.370Z,26.95
2023-03-29T10:31:33.530Z,25.63
2023-03-29T10:34:05.376Z,22.20
2023-03-29T10:36:32.654Z,21.68
2023-03-29T10:39:05.103Z,26.69
2023-03-29T10:41:35.348Z,24.34
2023-03-29T10:44:02.317Z,25.84
2023-03-29T10:46:41.578Z,25.77
2023-03-29T10:49:19.016Z,25.23
2023-03-29T10:51:46.967Z,23.98
2023-03-29T10:54:15.853Z,24.88
2023-03-29T10:57:05.191Z,22.27
2023-03-29T10:59:42.386Z,22.04
2023-03-29T11:02:15.082Z,20.26
2023-03-29T11:05:09.426Z,26.36
2023-03-29T11:07:50.155Z,24.51
2023-03-29T11:10:35.554Z,30.51
2023-03-29T11:13:24.687Z,24.13
2023-03-29T11:16:21.003Z,24.06
2023-03-29T11:19:15.467Z,24.47
2023-03-29T11:21:45.791Z,25.68
2023-03-29T11:24:53.399Z,25.24
2023-03-29T11:27:29.552Z,22.75
2023-03-29T11:30:21.657Z,24.41
2023-03-29T11:33:01.488Z,23.14
2023-03-29T11:35:47.330Z,25.18
2023-03-29T11:38:29.128Z,25.89
2023-03-29T11:40:59.439Z,24.61
2023-03-29T11:43:41.374Z,27.44
2023-03-29T11:46:21.805Z,27.14
2023-03-29T11:48:58.992Z,25.58
2023-03-29T11:51:30.769Z,27.34
2023-03-29T11:54:04.677Z,25.27
2023-03-29T11:56:46.833Z,26.95
2023-03-29T11:59:35.879Z,26.78
2023-03-29T12:02:15.015Z,27.71
2023-03-29T12:04:48.125Z,24.83
2023-03-29T12:07:33.083Z,27.20
2023-03-29T12:10:21.317Z,27.40
2023-03-29T12:12:57.479Z,28.63
2023-03-29T12:15:27.609Z,27.29
2023-03-29T12:18:02.075Z,31.54
2023-03-29T12:20:34.111Z,27.85
2023-03-29T12:23:01.211Z,30.01
2023-03-29T12:25:40.890Z,31.71
2023-03-29T12:28:23.316Z,32.80
2023-03-29T12:31:07.088Z,32.75
2023-03-29T12:34:15.685Z,33.79
2023-03-29T12:37:06.468Z,33.78
2023-03-29T12:39:33.752Z,32.02
2023-03-29T12:42:14.864Z,31.93
2023-03-29T12:44:45.715Z,34.04
2023-03-29T12:47:21.415Z,30.13
2023-03-29T12:49:54.394Z,28.79
2023-03-29T12:52:32.036Z,29.71
2023-03-29T12:55:20.814Z,28.65
2023-03-29T12:58:32.344Z,29.73
2023-03-29T13:01:06.120Z,30.08
2023-03-29T13:03:55.789Z,32.81
2023-03-29T13:06:31.615Z,31.64
2023-03-29T13:09:05.119Z,33.55
2023-03-29T13:11:41.370Z,35.14
2023-03-29T13:14:17.047Z,33.24
2023-03-29T13:16:43.857Z,33.90
2023-03-29T13:19:36.024Z,35.41
2023-03-29T13:22:33.873Z,34.61
2023-03-29T13:25:20.615Z,34.19
2023-03-29T13:27:59.502Z,34.63
2023-03-29T13:30:31.736Z,32.31
2023-03-29T13:33:38.198Z,34.12
2023-03-29T13:36:23.613Z,34.00
2023-03-29T13:38:53.565Z,35.68
2023-03-29T13:41:48.007Z,32.45
2023-03-29T13:44:24.491Z,31.39
2023-03-29T13:47:20.718Z,35.95
2023-03-29T13:49:56.389Z,34.54
2023-03-29T13:52:29.742Z,36.20
2023-03-29T13:55:14.724Z,35.42
2023-03-29T13:57:49.599Z,35.44
2023-03-29T14:00:23.873Z,35.77
2023-03-29T14:02:56.681Z,32.00
2023-03-29T14:05:39.033Z,33.14
2023-03-29T14:08:16.657Z,33.73
2023-03-29T14:10:45.311Z,33.67
2023-03-29T14:13:17.814Z,32.62
2023-03-29T14:16:07.093Z,34.27
2023-03-29T14:18:37.952Z,32.95
2023-03-29T14:21:05.703Z,35.94
2023-03-29T14:23:35.207Z,35.74
2023-03-29T14:26:20.682Z,36.75
2023-03-29T14:28:52.589Z,34.43
2023-03-29T14:31:25.326Z,35.94
2023-03-29T14:33:56.855Z,38.16
2023-03-29T14:36:25.207Z,36.99
2023-03-29T14:38:55.964Z,37.05
2023-03-29T14:41:24.394Z,36.97
2023-03-29T14:43:51.589Z,38.84
2023-03-29T14:46:21.385Z,38.07
2023-03-29T14:48:48.266Z,39.44
2023-03-29T14:51:15.604Z,39.04
2023-03-29T14:53:42.810Z,37.38
2023-03-29T14:56:15.976Z,36.82
2023-03-29T14:58:48.781Z,37.40
2023-03-29T15:01:21.796Z,39.61
2023-03-29T15:03:55.227Z,40.18
2023-03-29T15:06:27.374Z,38.63
2023-03-29T15:09:05.128Z,41.62
2023-03-29T15:11:34.385Z,41.27
2023-03-29T15:14:03.758Z,41.94
2023-03-29T15:16:31.538Z,40.40
2023-03-29T15:19:00.486Z,40.33
2023-03-29T15:21:33.071Z,40.14
2023-03-29T15:24:01.954Z,39.12
2023-03-29T15:26:35.860Z,39.85
2023-03-29T15:29:11.835Z,38.56
2023-03-29T15:31:41.271Z,39.40
2023-03-29T15:34:11.877Z,42.38
2023-03-29T15:36:42.970Z,41.77
2023-03-29T15:39:13.791Z,43.85
2023-03-29T15:41:41.552Z,40.94
2023-03-29T15:44:08.489Z,43.64
2023-03-29T15:46:35.093Z,40.87
2023-03-29T15:49:01.866Z,40.80
2023-03-29T15:51:28.484Z,41.75
2023-03-29T15:53:55.272Z,41.35
2023-03-29T15:56:22.956Z,41.86
2023-03-29T15:58:49.750Z,42.76
2023-03-29T16:01:39.454Z,43.13
2023-03-29T16:04:13.308Z,42.72
2023-03-29T16:06:41.047Z,43.63
2023-03-29T16:09:08.784Z,43.83
2023-03-29T16:11:35.665Z,43.19
2023-03-29T16:14:02.375Z,44.18
2023-03-29T16:16:28.960Z,45.13
2023-03-29T16:18:55.574Z,45.37
2023-03-29T16:21:22.786Z,48.67
2023-03-29T16:23:49.510Z,48.40
2023-03-29T16:26:17.141Z,47.82
2023-03-29T16:28:44.372Z,48.61
2023-03-29T16:31:11.993Z,50.08
2023-03-29T16:33:39.512Z,49.06
2023-03-29T16:36:06.850Z,49.91
2023-03-29T16:38:34.182Z,49.31
2023-03-29T16:41:01.556Z,51.69
2023-03-29T16:43:29.203Z,49.80
2023-03-29T16:45:56.920Z,52.47
2023-03-29T16:48:23.846Z,51.08
2023-03-29T16:50:50.708Z,51.53
2023-03-29T16:53:21.605Z,51.35
2023-03-29T16:55:48.526Z,53.66
2023-03-29T16:58:15.527Z,55.76
2023-03-29T17:00:43.059Z,55.31
2023-03-29T17:03:11.179Z,57.52
2023-03-29T17:05:41.456Z,59.10
2023-03-29T17:08:10.063Z,59.44
2023-03-29T17:10:39.502Z,58.18
2023-03-29T17:13:06.768Z,59.11
2023-03-29T17:15:33.718Z,59.26
2023-03-29T17:18:00.495Z,58.02
2023-03-29T17:20:27.204Z,59.38
2023-03-29T17:22:55.954Z,59.42
2023-03-29T17:25:23.614Z,61.62
2023-03-29T17:27:51.066Z,61.89
2023-03-29T17:30:17.852Z,61.63
2023-03-29T17:32:45.590Z,62.65
2023-03-29T17:35:12.788Z,63.73
2023-03-29T17:37:39.435Z,62.63
2023-03-29T17:40:10.790Z,64.42
2023-03-29T17:42:37.389Z,64.34
2023-03-29T17:45:04.332Z,64.49
2023-03-29T17:47:30.953Z,64.74
2023-03-29T17:49:57.535Z,64.83
2023-03-29T17:52:24.094Z,65.30
2023-03-29T17:54:50.891Z,65.64
2023-03-29T17:57:17.460Z,66.79
2023-03-29T17:59:44.063Z,68.23
2023-03-29T18:02:19.155Z,69.73
2023-03-29T18:04:46.158Z,68.06
2023-03-29T18:07:13.615Z,67.34
2023-03-29T18:09:40.639Z,70.23
2023-03-29T18:12:07.548Z,68.51
2023-03-29T18:14:34.913Z,68.14
2023-03-29T18:17:02.512Z,69.38
2023-03-29T18:19:29.199Z,69.01
2023-03-29T18:21:56.412Z,70.74
2023-03-29T18:24:23.135Z,70.34
2023-03-29T18:26:52.675Z,70.85
2023-03-29T18:29:19.369Z,71.15
2023-03-29T18:31:46.372Z,72.80
2023-03-29T18:34:13.141Z,74.44
2023-03-29T18:36:42.652Z,72.71
2023-03-29T18:39:09.715Z,72.54
2023-03-29T18:41:37.368Z,74.47
2023-03-29T18:44:04.914Z,73.07
2023-03-29T18:46:31.987Z,73.19
2023-03-29T18:48:59.856Z,73.63
2023-03-29T18:51:28.124Z,74.10
2023-03-29T18:53:56.079Z,75.87
2023-03-29T18:56:23.411Z,76.37
2023-03-29T18:58:50.242Z,74.45
2023-03-29T19:01:16.900Z,76.05
2023-03-29T19:03:43.833Z,80.76
2023-03-29T19:06:11.860Z,78.32
2023-03-29T19:08:44.235Z,78.33
2023-03-29T19:11:17.221Z,76.76
2023-03-29T19:13:50.191Z,75.44
2023-03-29T19:16:17.409Z,75.64
2023-03-29T19:18:44.201Z,76.25
2023-03-29T19:21:11.021Z,75.42
2023-03-29T19:23:37.773Z,76.02
2023-03-29T19:26:06.424Z,74.08
2023-03-29T19:28:34.435Z,74.32
2023-03-29T19:31:02.335Z,76.13
2023-03-29T19:33:29.560Z,75.12
2023-03-29T19:35:56.689Z,74.42
2023-03-29T19:38:23.528Z,74.43
2023-03-29T19:40:51.638Z,75.04
2023-03-29T19:43:19.412Z,74.67
2023-03-29T19:45:47.679Z,74.21
2023-03-29T19:48:21.966Z,75.55
2023-03-29T19:50:49.453Z,77.03
2023-03-29T19:53:16.066Z,76.20
2023-03-29T19:55:44.206Z,76.08
2023-03-29T19:58:10.848Z,76.83
2023-03-29T20:00:38.961Z,77.11
2023-03-29T20:03:09.306Z,77.30
2023-03-29T20:05:38.180Z,76.69
2023-03-29T20:08:04.854Z,77.24
2023-03-29T20:10:31.532Z,77.07
2023-03-29T20:12:58.177Z,78.21
2023-03-29T20:15:25.974Z,79.84
2023-03-29T20:17:55.209Z,78.86
2023-03-29T20:20:24.635Z,82.10
2023-03-29T20:22:54.005Z,83.58
2023-03-29T20:25:21.303Z,85.37
2023-03-29T20:27:49.444Z,85.50
2023-03-29T20:30:16.448Z,87.72
2023-03-29T20:32:43.192Z,84.04
2023-03-29T20:35:11.054Z,89.23
2023-03-29T20:37:37.627Z,85.75
2023-03-29T20:40:05.565Z,86.77
2023-03-29T20:42:36.764Z,85.56
2023-03-29T20:45:04.644Z,87.64
2023-03-29T20:47:31.431Z,86.22
2023-03-29T20:49:58.074Z,85.43
2023-03-29T20:52:24.885Z,88.25
2023-03-29T20:54:51.614Z,87.45
2023-03-29T20:57:20.922Z,88.46
2023-03-29T20:59:49.352Z,86.82
2023-03-29T21:02:22.899Z,86.73
2023-03-29T21:04:53.598Z,86.95
2023-03-29T21:07:21.459Z,86.69
2023-03-29T21:09:49.940Z,87.35
2023-03-29T21:12:16.837Z,87.88
2023-03-29T21:14:43.657Z,88.59
2023-03-29T21:17:10.340Z,89.22
2023-03-29T21:19:39.134Z,88.91
2023-03-29T21:22:06.105Z,90.07
2023-03-29T21:24:33.446Z,89.70
2023-03-29T21:27:00.618Z,90.22
2023-03-29T21:29:27.699Z,91.21
2023-03-29T21:31:54.574Z,90.83
2023-03-29T21:34:21.361Z,89.86
2023-03-29T21:36:48.008Z,89.64
2023-03-29T21:39:14.956Z,91.56
2023-03-29T21:41:41.668Z,91.34
2023-03-29T21:44:08.564Z,89.73
2023-03-29T21:46:35.484Z,92.02
2023-03-29T21:49:02.195Z,91.01
2023-03-29T21:51:31.886Z,91.10
2023-03-29T21:53:58.451Z,92.62
2023-03-29T21:56:26.387Z,92.33
2023-03-29T21:58:52.974Z,95.62
2023-03-29T22:01:19.600Z,93.70
2023-03-29T22:03:46.385Z,93.27
2023-03-29T22:06:14.596Z,94.07
2023-03-29T22:08:41.295Z,94.51
2023-03-29T22:11:11.078Z,93.97
2023-03-29T22:13:37.832Z,95.63
2023-03-29T22:16:05.607Z,95.06
2023-03-29T22:18:46.829Z,97.62
2023-03-29T22:21:15.172Z,96.93
2023-03-29T22:23:43.260Z,96.72
2023-03-29T22:26:12.175Z,95.77
2023-03-29T22:28:39.920Z,96.47
2023-03-29T22:31:09.390Z,97.67
2023-03-29T22:33:37.261Z,98.65
2023-03-29T22:36:14.148Z,96.32
2023-03-29T22:38:40.861Z,95.68
2023-03-29T22:41:08.343Z,98.77
2023-03-29T22:43:36.595Z,95.00
2023-03-29T22:46:08.091Z,97.11
2023-03-29T22:48:35.722Z,96.98
2023-03-29T22:51:02.728Z,97.58
2023-03-29T22:53:29.530Z,98.52
2023-03-29T22:55:56.101Z,99.83
2023-03-29T22:58:26.277Z,100.00
2023-03-29T23:00:53.184Z,100.00
2023-03-29T23:03:19.789Z,100.00
2023-03-29T23:05:58.260Z,100.00
2023-03-29T23:08:25.847Z,100.00
2023-03-29T23:10:52.911Z,100.00
2023-03-29T23:13:24.137Z,100.00
2023-03-29T23:15:51.669Z,100.00
2023-03-29T23:18:21.068Z,100.00
2023-03-29T23:20:53.163Z,100.00
2023-03-29T23:23:20.555Z,100.00
2023-03-29T23:25:48.563Z,100.00
2023-03-29T23:28:16.982Z,100.00
2023-03-29T23:30:43.789Z,100.00
2023-03-29T23:33:10.604Z,100.00
2023-03-29T23:35:37.785Z,100.00
2023-03-29T23:38:05.784Z,100.00
2023-03-29T23:40:33.294Z,100.00
2023-03-29T23:42:59.983Z,100.00
2023-03-29T23:45:27.955Z,100.00
2023-03-29T23:47:54.665Z,100.00
2023-03-29T23:50:23.882Z,100.00
2023-03-29T23:52:51.568Z,100.00
2023-03-29T23:55:18.541Z,100.00
2023-03-29T23:57:45.155Z,100.00
